createdAt,value
2023-11-07T00:01:08.286Z,98128.28
2023-11-07T00:04:09.939Z,98134.34
2023-11-07T00:07:11.488Z,98125.69
2023-11-07T00:10:12.896Z,98123.94
2023-11-07T00:13:14.383Z,98120.47
2023-11-07T00:16:15.871Z,98121.34
2023-11-07T00:19:17.691Z,98105.75
2023-11-07T00:22:19.505Z,98110.94
2023-11-07T00:25:22.834Z,98105.75
2023-11-07T00:28:26.582Z,98116.16
2023-11-07T00:31:28.615Z,98104.03
2023-11-07T00:34:30.467Z,98104.91
2023-11-07T00:37:32.026Z,98110.06
2023-11-07T00:40:33.549Z,98116.13
2023-11-07T00:43:35.830Z,98106.59
2023-11-07T00:46:37.399Z,98094.47
2023-11-07T00:49:38.849Z,98096.19
2023-11-07T00:52:40.344Z,98110.88
2023-11-07T00:55:41.825Z,98093.56
2023-11-07T00:58:43.326Z,98086.66
2023-11-07T01:01:44.941Z,98087.53
2023-11-07T01:04:46.657Z,98083.19
2023-11-07T01:07:48.217Z,98087.44
2023-11-07T01:10:49.637Z,98077.03
2023-11-07T01:13:51.033Z,98073.59
2023-11-07T01:16:52.708Z,98070.97
2023-11-07T01:19:54.700Z,98070.13
2023-11-07T01:22:56.183Z,98081.38
2023-11-07T01:25:57.790Z,98078.75
2023-11-07T01:28:59.323Z,98071.06
2023-11-07T01:32:00.772Z,98076.28
2023-11-07T01:35:02.293Z,98065.84
2023-11-07T01:38:04.661Z,98072.69
2023-11-07T01:41:06.198Z,98057.19
2023-11-07T01:44:07.706Z,98077.09
2023-11-07T01:47:09.156Z,98062.41
2023-11-07T01:50:11.780Z,98070.97
2023-11-07T01:53:13.261Z,98079.66
2023-11-07T01:56:14.710Z,98071.06
2023-11-07T01:59:16.320Z,98062.41
2023-11-07T02:02:19.785Z,98045.13
2023-11-07T02:05:21.747Z,98062.41
2023-11-07T02:08:26.585Z,98070.13
2023-11-07T02:11:29.658Z,98063.19
2023-11-07T02:14:34.004Z,98067.47
2023-11-07T02:17:35.574Z,98070.09
2023-11-07T02:20:41.097Z,98075.22
2023-11-07T02:23:42.936Z,98070.09
2023-11-07T02:26:44.755Z,98069.06
2023-11-07T02:29:47.411Z,98078.69
2023-11-07T02:32:49.184Z,98082.97
2023-11-07T02:35:50.806Z,98070.00
2023-11-07T02:38:53.657Z,98066.56
2023-11-07T02:41:55.145Z,98074.41
2023-11-07T02:44:57.180Z,98070.91
2023-11-07T02:47:58.876Z,98074.34
2023-11-07T02:51:00.588Z,98078.59
2023-11-07T02:54:02.323Z,98075.19
2023-11-07T02:57:04.041Z,98072.69
2023-11-07T03:00:05.867Z,98073.59
2023-11-07T03:03:07.415Z,98077.16
2023-11-07T03:06:09.009Z,98077.16
2023-11-07T03:09:11.248Z,98062.47
2023-11-07T03:12:13.941Z,98078.03
2023-11-07T03:15:16.009Z,98092.78
2023-11-07T03:18:17.632Z,98097.09
2023-11-07T03:21:20.146Z,98106.63
2023-11-07T03:24:21.593Z,98108.34
2023-11-07T03:27:23.050Z,98120.47
2023-11-07T03:30:24.523Z,98123.97
2023-11-07T03:33:26.683Z,98133.47
2023-11-07T03:36:28.303Z,98148.09
2023-11-07T03:39:29.883Z,98150.81
2023-11-07T03:42:31.381Z,98151.69
2023-11-07T03:45:32.910Z,98164.66
2023-11-07T03:48:34.449Z,98154.28
2023-11-07T03:51:35.976Z,98160.34
2023-11-07T03:54:37.495Z,98172.47
2023-11-07T03:57:39.063Z,98162.94
2023-11-07T04:00:41.914Z,98161.22
2023-11-07T04:03:43.440Z,98171.63
2023-11-07T04:06:45.295Z,98178.56
2023-11-07T04:09:46.878Z,98183.75
2023-11-07T04:12:48.407Z,98190.69
2023-11-07T04:15:49.889Z,98195.00
2023-11-07T04:18:54.566Z,98181.16
2023-11-07T04:21:56.256Z,98191.53
2023-11-07T04:24:58.659Z,98188.06
2023-11-07T04:28:00.135Z,98182.00
2023-11-07T04:31:01.652Z,98188.91
2023-11-07T04:34:03.432Z,98172.44
2023-11-07T04:37:04.984Z,98180.16
2023-11-07T04:40:08.218Z,98162.88
2023-11-07T04:43:09.874Z,98174.13
2023-11-07T04:46:14.517Z,98152.50
2023-11-07T04:49:16.102Z,98156.00
2023-11-07T04:52:17.701Z,98169.88
2023-11-07T04:55:19.487Z,98162.06
2023-11-07T04:58:21.585Z,98161.22
2023-11-07T05:01:23.146Z,98171.59
2023-11-07T05:04:24.771Z,98161.22
2023-11-07T05:07:26.355Z,98175.09
2023-11-07T05:10:27.865Z,98174.22
2023-11-07T05:13:29.388Z,98177.66
2023-11-07T05:16:31.001Z,98184.59
2023-11-07T05:19:32.551Z,98190.69
2023-11-07T05:22:34.202Z,98188.09
2023-11-07T05:25:36.914Z,98200.25
2023-11-07T05:28:38.427Z,98204.53
2023-11-07T05:31:40.014Z,98214.06
2023-11-07T05:34:41.541Z,98212.34
2023-11-07T05:37:44.056Z,98210.59
2023-11-07T05:40:45.568Z,98208.00
2023-11-07T05:43:47.059Z,98212.34
2023-11-07T05:46:48.533Z,98204.53
2023-11-07T05:49:52.025Z,98218.41
2023-11-07T05:52:53.857Z,98220.13
2023-11-07T05:55:56.074Z,98224.50
2023-11-07T05:58:57.507Z,98239.25
2023-11-07T06:01:59.011Z,98221.88
2023-11-07T06:05:00.455Z,98223.59
2023-11-07T06:08:01.960Z,98219.28
2023-11-07T06:11:03.586Z,98218.41
2023-11-07T06:14:04.988Z,98221.03
2023-11-07T06:17:06.516Z,98223.63
2023-11-07T06:20:09.740Z,98230.56
2023-11-07T06:23:11.177Z,98229.69
2023-11-07T06:26:12.726Z,98226.22
2023-11-07T06:29:16.022Z,98214.09
2023-11-07T06:32:18.684Z,98223.63
2023-11-07T06:35:20.151Z,98233.16
2023-11-07T06:38:26.708Z,98221.91
2023-11-07T06:41:29.125Z,98232.31
2023-11-07T06:44:30.585Z,98240.97
2023-11-07T06:47:32.285Z,98240.09
2023-11-07T06:50:33.885Z,98238.34
2023-11-07T06:53:35.342Z,98247.88
2023-11-07T06:56:36.790Z,98255.69
2023-11-07T06:59:38.229Z,98248.75
2023-11-07T07:02:43.762Z,98256.56
2023-11-07T07:05:45.461Z,98260.91
2023-11-07T07:08:47.804Z,98261.78
2023-11-07T07:11:49.362Z,98266.97
2023-11-07T07:14:50.909Z,98274.78
2023-11-07T07:17:52.411Z,98281.72
2023-11-07T07:20:56.339Z,98286.91
2023-11-07T07:23:57.884Z,98282.56
2023-11-07T07:27:00.161Z,98294.72
2023-11-07T07:30:02.877Z,98300.78
2023-11-07T07:33:07.468Z,98292.97
2023-11-07T07:36:12.745Z,98306.84
2023-11-07T07:39:31.140Z,98309.44
2023-11-07T07:42:33.360Z,98304.22
2023-11-07T07:45:35.592Z,98312.00
2023-11-07T07:48:37.150Z,98310.28
2023-11-07T07:51:40.632Z,98306.81
2023-11-07T07:55:01.085Z,98314.59
2023-11-07T07:58:07.929Z,98320.69
2023-11-07T08:01:11.176Z,98311.13
2023-11-07T08:04:13.748Z,98325.91
2023-11-07T08:07:17.981Z,98317.25
2023-11-07T08:10:21.092Z,98327.63
2023-11-07T08:13:22.570Z,98324.16
2023-11-07T08:16:24.880Z,98324.13
2023-11-07T08:19:26.329Z,98319.78
2023-11-07T08:22:27.809Z,98311.91
2023-11-07T08:25:29.495Z,98326.66
2023-11-07T08:28:31.043Z,98331.03
2023-11-07T08:31:32.831Z,98322.25
2023-11-07T08:34:34.709Z,98322.25
2023-11-07T08:37:36.281Z,98330.03
2023-11-07T08:40:37.948Z,98330.00
2023-11-07T08:43:39.917Z,98336.84
2023-11-07T08:46:41.464Z,98336.78
2023-11-07T08:49:43.800Z,98346.44
2023-11-07T08:52:45.384Z,98349.00
2023-11-07T08:55:50.932Z,98354.28
2023-11-07T08:58:52.692Z,98361.19
2023-11-07T09:01:56.313Z,98365.53
2023-11-07T09:04:57.993Z,98369.88
2023-11-07T09:08:00.035Z,98365.50
2023-11-07T09:11:01.532Z,98384.78
2023-11-07T09:14:03.169Z,98370.91
2023-11-07T09:17:22.615Z,98376.19
2023-11-07T09:20:25.620Z,98371.03
2023-11-07T09:23:28.199Z,98377.13
2023-11-07T09:26:35.382Z,98371.91
2023-11-07T09:29:38.581Z,98371.03
2023-11-07T09:32:40.681Z,98371.91
2023-11-07T09:35:42.429Z,98375.38
2023-11-07T09:38:51.845Z,98371.94
2023-11-07T09:41:54.803Z,98363.28
2023-11-07T09:44:56.390Z,98361.53
2023-11-07T09:47:58.164Z,98368.47
2023-11-07T09:50:59.755Z,98360.66
2023-11-07T09:54:01.307Z,98343.31
2023-11-07T09:57:10.168Z,98350.25
2023-11-07T10:00:12.420Z,98347.66
2023-11-07T10:03:15.357Z,98351.13
2023-11-07T10:06:18.432Z,98328.56
2023-11-07T10:09:20.761Z,98332.00
2023-11-07T10:12:22.861Z,98324.22
2023-11-07T10:15:26.159Z,98318.16
2023-11-07T10:18:27.925Z,98315.53
2023-11-07T10:21:32.860Z,98320.72
2023-11-07T10:24:44.394Z,98328.53
2023-11-07T10:27:47.791Z,98313.72
2023-11-07T10:30:49.800Z,98319.81
2023-11-07T10:33:51.642Z,98322.41
2023-11-07T10:36:53.289Z,98333.69
2023-11-07T10:39:58.339Z,98355.44
2023-11-07T10:43:00.305Z,98354.56
2023-11-07T10:46:04.772Z,98357.16
2023-11-07T10:49:06.505Z,98362.38
2023-11-07T10:52:08.276Z,98361.50
2023-11-07T10:55:10.934Z,98357.13
2023-11-07T10:58:12.528Z,98350.19
2023-11-07T11:01:14.630Z,98357.19
2023-11-07T11:04:16.981Z,98354.59
2023-11-07T11:07:18.564Z,98347.63
2023-11-07T11:10:22.049Z,98353.72
2023-11-07T11:13:25.873Z,98337.19
2023-11-07T11:16:28.023Z,98335.47
2023-11-07T11:19:35.432Z,98325.91
2023-11-07T11:22:44.722Z,98340.69
2023-11-07T11:26:24.812Z,98343.25
2023-11-07T11:29:27.098Z,98339.78
2023-11-07T11:32:33.289Z,98338.00
2023-11-07T11:35:39.556Z,98335.44
2023-11-07T11:38:41.148Z,98333.69
2023-11-07T11:41:56.477Z,98338.91
2023-11-07T11:45:17.808Z,98346.69
2023-11-07T11:48:20.755Z,98344.06
2023-11-07T11:51:32.764Z,98349.25
2023-11-07T11:54:34.812Z,98342.34
2023-11-07T11:57:52.380Z,98350.22
2023-11-07T12:00:53.820Z,98348.44
2023-11-07T12:03:55.366Z,98340.66
2023-11-07T12:07:09.883Z,98338.88
2023-11-07T12:10:14.763Z,98341.44
2023-11-07T12:13:16.347Z,98333.56
2023-11-07T12:16:20.541Z,98343.19
2023-11-07T12:19:22.238Z,98332.78
2023-11-07T12:22:23.782Z,98343.22
2023-11-07T12:25:26.442Z,98330.22
2023-11-07T12:28:28.007Z,98324.13
2023-11-07T12:31:39.712Z,98324.19
2023-11-07T12:34:41.249Z,98324.22
2023-11-07T12:37:42.992Z,98329.41
2023-11-07T12:40:44.741Z,98352.00
2023-11-07T12:43:47.516Z,98339.84
2023-11-07T12:46:49.695Z,98344.16
2023-11-07T12:49:55.063Z,98353.72
2023-11-07T12:52:57.101Z,98351.09
2023-11-07T12:55:59.099Z,98362.41
2023-11-07T12:59:10.472Z,98345.03
2023-11-07T13:02:11.968Z,98361.53
2023-11-07T13:05:19.750Z,98351.97
2023-11-07T13:08:30.414Z,98355.44
2023-11-07T13:11:32.027Z,98362.41
2023-11-07T13:14:34.618Z,98362.38
2023-11-07T13:17:37.543Z,98365.88
2023-11-07T13:20:39.142Z,98356.25
2023-11-07T13:23:40.795Z,98384.94
2023-11-07T13:26:42.286Z,98373.66
2023-11-07T13:29:44.845Z,98371.03
2023-11-07T13:32:46.395Z,98365.88
2023-11-07T13:35:49.081Z,98367.59
2023-11-07T13:38:50.702Z,98368.47
2023-11-07T13:41:52.338Z,98376.28
2023-11-07T13:44:55.440Z,98373.69
2023-11-07T13:48:01.707Z,98371.94
2023-11-07T13:51:03.396Z,98361.53
2023-11-07T13:54:05.550Z,98365.00
2023-11-07T13:57:07.142Z,98368.47
2023-11-07T14:00:12.885Z,98365.88
2023-11-07T14:03:14.903Z,98360.66
2023-11-07T14:06:19.332Z,98362.41
2023-11-07T14:09:21.303Z,98358.91
2023-11-07T14:12:23.345Z,98353.72
2023-11-07T14:15:43.224Z,98354.59
2023-11-07T14:18:45.097Z,98350.25
2023-11-07T14:21:48.405Z,98350.25
2023-11-07T14:24:51.706Z,98358.94
2023-11-07T14:27:53.203Z,98347.66
2023-11-07T14:30:55.297Z,98351.97
2023-11-07T14:33:59.215Z,98350.25
2023-11-07T14:37:00.928Z,98352.00
2023-11-07T14:40:08.067Z,98363.28
2023-11-07T14:43:16.041Z,98358.94
2023-11-07T14:46:21.205Z,98365.84
2023-11-07T14:49:22.900Z,98350.25
2023-11-07T14:52:24.533Z,98357.16
2023-11-07T14:55:27.158Z,98351.97
2023-11-07T14:58:28.659Z,98353.69
2023-11-07T15:01:34.596Z,98358.94
2023-11-07T15:04:38.395Z,98370.16
2023-11-07T15:07:39.947Z,98381.41
2023-11-07T15:10:41.474Z,98375.34
2023-11-07T15:13:43.250Z,98388.38
2023-11-07T15:16:48.216Z,98383.09
2023-11-07T15:19:49.940Z,98385.72
2023-11-07T15:22:51.416Z,98391.81
2023-11-07T15:25:52.999Z,98390.88
2023-11-07T15:28:54.497Z,98410.00
2023-11-07T15:31:56.153Z,98409.22
2023-11-07T15:34:57.759Z,98407.44
2023-11-07T15:38:01.844Z,98403.94
2023-11-07T15:41:03.401Z,98394.41
2023-11-07T15:44:05.386Z,98389.22
2023-11-07T15:47:07.227Z,98391.75
2023-11-07T15:50:09.410Z,98380.53
2023-11-07T15:53:12.480Z,98376.13
2023-11-07T15:56:14.187Z,98377.88
2023-11-07T15:59:15.929Z,98386.53
2023-11-07T16:02:18.023Z,98370.03
2023-11-07T16:05:20.564Z,98373.47
2023-11-07T16:08:23.790Z,98374.34
2023-11-07T16:11:26.565Z,98373.50
2023-11-07T16:14:28.915Z,98364.84
2023-11-07T16:17:30.498Z,98380.44
2023-11-07T16:20:32.424Z,98370.03
2023-11-07T16:23:34.139Z,98372.59
2023-11-07T16:26:38.600Z,98366.47
2023-11-07T16:29:40.199Z,98377.66
2023-11-07T16:32:41.956Z,98388.06
2023-11-07T16:35:43.578Z,98385.44
2023-11-07T16:38:45.053Z,98403.63
2023-11-07T16:41:46.744Z,98388.03
2023-11-07T16:44:48.277Z,98397.53
2023-11-07T16:47:51.043Z,98387.91
2023-11-07T16:50:52.650Z,98394.09
2023-11-07T16:53:54.317Z,98398.41
2023-11-07T16:56:56.277Z,98393.19
2023-11-07T16:59:57.803Z,98399.28
2023-11-07T17:02:59.515Z,98403.53
2023-11-07T17:06:01.099Z,98404.44
2023-11-07T17:09:02.711Z,98410.50
2023-11-07T17:12:05.136Z,98420.91
2023-11-07T17:15:09.205Z,98413.09
2023-11-07T17:18:11.672Z,98424.34
2023-11-07T17:21:14.293Z,98414.78
2023-11-07T17:24:17.175Z,98418.28
2023-11-07T17:27:18.770Z,98421.75
2023-11-07T17:30:21.415Z,98421.75
2023-11-07T17:33:23.308Z,98430.41
2023-11-07T17:36:25.087Z,98415.66
2023-11-07T17:39:27.863Z,98423.41
2023-11-07T17:42:29.730Z,98420.88
2023-11-07T17:45:31.299Z,98425.09
2023-11-07T17:48:35.558Z,98438.06
2023-11-07T17:51:40.404Z,98439.75
2023-11-07T17:54:43.564Z,98442.41
2023-11-07T17:57:45.450Z,98441.44
2023-11-07T18:00:47.067Z,98438.09
2023-11-07T18:03:48.898Z,98437.13
2023-11-07T18:06:50.531Z,98443.25
2023-11-07T18:09:52.182Z,98457.03
2023-11-07T18:12:53.866Z,98462.19
2023-11-07T18:15:58.684Z,98473.38
2023-11-07T18:19:00.715Z,98473.25
2023-11-07T18:22:02.681Z,98476.78
2023-11-07T18:25:06.968Z,98474.25
2023-11-07T18:28:11.234Z,98478.53
2023-11-07T18:31:13.515Z,98481.94
2023-11-07T18:34:22.428Z,98470.63
2023-11-07T18:37:26.250Z,98474.94
2023-11-07T18:40:27.815Z,98473.09
2023-11-07T18:43:29.378Z,98472.31
2023-11-07T18:46:31.024Z,98475.72
2023-11-07T18:49:33.126Z,98479.22
2023-11-07T18:52:34.840Z,98487.81
2023-11-07T18:55:36.337Z,98487.81
2023-11-07T18:58:38.014Z,98498.09
2023-11-07T19:01:39.639Z,98501.56
2023-11-07T19:04:41.580Z,98496.16
2023-11-07T19:07:43.255Z,98496.13
2023-11-07T19:10:45.899Z,98503.00
2023-11-07T19:13:47.842Z,98499.53
2023-11-07T19:16:51.055Z,98503.03
2023-11-07T19:19:53.831Z,98519.50
2023-11-07T19:22:55.677Z,98521.34
2023-11-07T19:25:57.280Z,98518.88
2023-11-07T19:28:58.906Z,98532.81
2023-11-07T19:32:01.283Z,98544.03
2023-11-07T19:35:06.595Z,98538.78
2023-11-07T19:38:08.098Z,98541.28
2023-11-07T19:41:10.624Z,98547.38
2023-11-07T19:44:12.109Z,98544.78
2023-11-07T19:47:14.235Z,98554.41
2023-11-07T19:50:17.933Z,98572.59
2023-11-07T19:53:19.567Z,98565.84
2023-11-07T19:56:21.360Z,98573.44
2023-11-07T19:59:22.884Z,98568.28
2023-11-07T20:02:24.531Z,98575.06
2023-11-07T20:05:27.695Z,98579.44
2023-11-07T20:08:34.938Z,98570.78
2023-11-07T20:11:38.398Z,98581.31
2023-11-07T20:14:40.006Z,98578.50
2023-11-07T20:17:41.672Z,98588.88
2023-11-07T20:20:43.427Z,98589.75
2023-11-07T20:23:44.939Z,98584.50
2023-11-07T20:26:46.449Z,98589.56
2023-11-07T20:29:48.110Z,98591.38
2023-11-07T20:32:50.368Z,98593.06
2023-11-07T20:35:51.854Z,98591.22
2023-11-07T20:38:54.847Z,98591.16
2023-11-07T20:41:56.601Z,98594.47
2023-11-07T20:45:04.069Z,98588.53
2023-11-07T20:48:12.151Z,98591.09
2023-11-07T20:51:13.874Z,98590.19
2023-11-07T20:54:15.939Z,98587.28
2023-11-07T20:57:22.258Z,98589.72
2023-11-07T21:00:24.121Z,98587.03
2023-11-07T21:03:26.244Z,98591.09
2023-11-07T21:06:27.799Z,98587.78
2023-11-07T21:09:29.322Z,98580.13
2023-11-07T21:12:30.908Z,98577.28
2023-11-07T21:15:33.696Z,98577.34
2023-11-07T21:18:35.533Z,98578.94
2023-11-07T21:21:37.247Z,98576.38
2023-11-07T21:24:38.818Z,98573.84
2023-11-07T21:27:41.199Z,98565.44
2023-11-07T21:30:42.983Z,98569.78
2023-11-07T21:33:45.310Z,98565.59
2023-11-07T21:36:47.050Z,98577.78
2023-11-07T21:39:48.623Z,98578.84
2023-11-07T21:42:50.139Z,98579.84
2023-11-07T21:45:52.930Z,98585.09
2023-11-07T21:48:54.455Z,98591.34
2023-11-07T21:51:56.019Z,98599.22
2023-11-07T21:54:57.515Z,98601.78
2023-11-07T21:57:59.178Z,98607.22
2023-11-07T22:01:00.691Z,98607.22
2023-11-07T22:04:02.180Z,98610.66
2023-11-07T22:07:04.168Z,98609.91
2023-11-07T22:10:06.012Z,98605.56
2023-11-07T22:13:07.449Z,98609.91
2023-11-07T22:16:11.495Z,98614.19
2023-11-07T22:19:13.233Z,98615.16
2023-11-07T22:22:15.473Z,98621.31
2023-11-07T22:25:17.177Z,98621.34
2023-11-07T22:28:18.682Z,98620.50
2023-11-07T22:31:20.177Z,98623.13
2023-11-07T22:34:21.858Z,98624.81
2023-11-07T22:37:23.720Z,98628.88
2023-11-07T22:40:25.198Z,98628.13
2023-11-07T22:43:26.673Z,98622.94
2023-11-07T22:46:28.151Z,98625.63
2023-11-07T22:49:29.687Z,98628.25
2023-11-07T22:52:31.269Z,98635.91
2023-11-07T22:55:33.047Z,98644.56
2023-11-07T22:58:34.485Z,98652.34
2023-11-07T23:01:35.927Z,98647.09
2023-11-07T23:04:37.382Z,98653.06
2023-11-07T23:07:39.014Z,98658.19
2023-11-07T23:10:41.750Z,98643.53
2023-11-07T23:13:43.376Z,98637.22
2023-11-07T23:16:44.895Z,98633.66
2023-11-07T23:19:46.391Z,98625.72
2023-11-07T23:22:48.114Z,98610.81
2023-11-07T23:25:51.030Z,98606.53
2023-11-07T23:28:52.596Z,98599.59
2023-11-07T23:31:54.488Z,98592.53
2023-11-07T23:34:56.474Z,98605.44
2023-11-07T23:37:57.970Z,98604.44
2023-11-07T23:40:59.428Z,98611.41
2023-11-07T23:44:00.908Z,98604.56
2023-11-07T23:47:02.432Z,98612.41
2023-11-07T23:50:04.316Z,98608.16
2023-11-07T23:53:05.763Z,98604.75
2023-11-07T23:56:07.232Z,98617.72
2023-11-07T23:59:08.609Z,98620.19
